Time;durP1;ratioP1;P1;durP2;ratioP2;P2;SDS_P1;SDS_P2;PMS_P1;PMS_P2;Temp;Humidity;BMP_temperature;BMP_pressure;BME280_temperature;BME280_humidity;BME280_pressure;Samples;Min_cycle;Max_cycle;Signal;HPM_P1;HPM_P2
2022/09/09 00:01:41;;;;;;;0.40;0.20;;;22.90;99.90;;;23.25;53.55;100476.25;4898373;28;99737;-54
2022/09/09 00:04:16;;;;;;;0.00;0.00;;;22.80;99.90;;;23.21;53.77;100474.00;4900344;28;97883;-53
2022/09/09 00:07:05;;;;;;;0.00;0.00;;;22.80;99.90;;;23.22;53.53;100465.78;4895930;28;103617;-49
2022/09/09 00:10:34;;;;;;;0.00;0.00;;;22.80;99.90;;;23.15;53.64;100457.44;4894517;28;98995;-53
2022/09/09 00:13:39;;;;;;;0.00;0.00;;;22.70;99.90;;;23.18;53.62;100448.22;4877975;28;100852;-46
2022/09/09 00:16:30;;;;;;;0.00;0.00;;;22.80;99.90;;;23.23;53.41;100451.34;4894940;28;98432;-51
2022/09/09 00:19:03;;;;;;;0.00;0.00;;;22.90;99.90;;;23.27;53.31;100452.75;4895336;28;101869;-52
2022/09/09 00:21:37;;;;;;;0.00;0.00;;;23.00;99.90;;;23.31;53.12;100446.13;4894967;28;97569;-51
2022/09/09 00:24:36;;;;;;;0.00;0.00;;;23.00;99.90;;;23.32;53.23;100446.97;4897910;28;97304;-53
2022/09/09 00:27:29;;;;;;;0.00;0.00;;;23.00;99.90;;;23.30;53.32;100452.50;4896531;28;98264;-48
2022/09/09 00:30:22;;;;;;;0.23;0.13;;;23.00;99.90;;;23.24;53.62;100449.50;4906184;28;100471;-49
2022/09/09 00:33:04;;;;;;;0.00;0.00;;;22.90;99.90;;;23.25;53.53;100448.50;4921073;28;105194;-50
2022/09/09 00:35:35;;;;;;;0.10;0.10;;;22.90;99.90;;;23.25;53.51;100452.03;4913666;28;96973;-54
2022/09/09 00:38:12;;;;;;;0.00;0.00;;;22.90;99.90;;;23.28;53.44;100451.75;4912933;28;97101;-52
2022/09/09 00:40:49;;;;;;;0.27;0.20;;;23.00;99.90;;;23.28;53.45;100446.38;4914539;28;98168;-49
2022/09/09 00:43:34;;;;;;;0.00;0.00;;;22.90;99.90;;;23.28;53.55;100443.69;4909235;28;97178;-53
2022/09/09 00:46:53;;;;;;;0.00;0.00;;;23.00;99.90;;;23.24;53.78;100439.59;4911948;28;97055;-52
2022/09/09 00:49:25;;;;;;;0.00;0.00;;;22.90;99.90;;;23.19;54.03;100449.94;4896577;28;97446;-52
2022/09/09 00:52:40;;;;;;;0.00;0.00;;;22.70;99.90;;;23.20;53.74;100454.31;4919479;28;98033;-51
2022/09/09 00:55:36;;;;;;;0.00;0.00;;;22.80;99.90;;;23.20;53.92;100454.31;4911715;28;101173;-51
2022/09/09 00:58:02;;;;;;;0.00;0.00;;;22.80;99.90;;;23.15;54.08;100456.59;4914166;28;96725;-52
2022/09/09 01:00:32;;;;;;;0.00;0.00;;;22.70;99.90;;;23.16;53.87;100452.91;4918066;28;97130;-51
2022/09/09 01:03:45;;;;;;;0.00;0.00;;;22.70;99.90;;;23.19;53.80;100447.25;4912845;28;98860;-47
2022/09/09 01:06:36;;;;;;;0.00;0.00;;;22.80;99.90;;;23.22;53.59;100452.34;4910652;28;102586;-54
2022/09/09 01:09:16;;;;;;;0.10;0.10;;;22.90;99.90;;;23.24;53.59;100449.50;4905365;28;97312;-49
2022/09/09 01:12:00;;;;;;;0.10;0.10;;;22.90;99.90;;;23.24;53.58;100439.59;4907895;28;97061;-49
2022/09/09 01:14:36;;;;;;;0.00;0.00;;;22.90;99.90;;;23.29;53.49;100448.09;4908149;28;97295;-51
2022/09/09 01:17:09;;;;;;;0.00;0.00;;;23.00;99.90;;;23.32;53.22;100453.19;4928663;28;98339;-47
2022/09/09 01:20:10;;;;;;;0.20;0.20;;;23.10;99.90;;;23.36;53.26;100454.59;4915510;28;97018;-49
2022/09/09 01:23:08;;;;;;;0.10;0.10;;;23.10;99.90;;;23.38;53.41;100452.63;4899705;28;97646;-53
2022/09/09 01:25:43;;;;;;;0.00;0.00;;;23.20;99.90;;;23.44;53.07;100448.53;4919977;28;102217;-50
2022/09/09 01:28:16;;;;;;;0.00;0.00;;;23.30;99.90;;;23.47;53.03;100452.78;4912319;28;97104;-49
2022/09/09 01:30:42;;;;;;;0.00;0.00;;;23.30;99.90;;;23.50;52.88;100450.63;4903797;28;99804;-52
2022/09/09 01:33:15;;;;;;;0.00;0.00;;;23.40;99.90;;;23.55;52.75;100444.81;4909833;28;97314;-46
2022/09/09 01:35:54;;;;;;;0.00;0.00;;;23.40;99.90;;;23.59;52.63;100454.34;4909248;28;101514;-53
2022/09/09 01:38:21;;;;;;;0.33;0.33;;;23.40;99.90;;;23.60;52.41;100450.66;4905522;28;98159;-51
2022/09/09 01:40:47;;;;;;;0.00;0.00;;;23.40;99.90;;;23.56;52.34;100449.19;4910864;28;97147;-52
2022/09/09 01:43:13;;;;;;;0.00;0.00;;;23.40;99.90;;;23.44;52.89;100457.44;4906566;28;97563;-55
2022/09/09 01:45:43;;;;;;;0.00;0.00;;;23.10;99.90;;;23.36;53.27;100449.22;4900731;28;101544;-53
2022/09/09 01:48:09;;;;;;;0.00;0.00;;;23.00;99.90;;;23.32;53.40;100453.19;4914017;28;97875;-50
2022/09/09 01:50:35;;;;;;;0.00;0.00;;;22.90;99.90;;;23.26;53.50;100448.38;4921639;28;97364;-52
2022/09/09 01:53:02;;;;;;;0.00;0.00;;;22.80;99.90;;;23.21;53.71;100456.03;4914386;28;97401;-46
2022/09/09 01:55:49;;;;;;;0.00;0.00;;;22.70;99.90;;;23.16;53.41;100452.91;4914937;28;110165;-50
2022/09/09 01:58:45;;;;;;;0.00;0.00;;;22.60;99.90;;;23.09;52.13;100454.44;4890983;28;100756;-49
2022/09/09 02:02:08;;;;;;;0.00;0.00;;;22.60;99.90;;;22.97;52.78;100459.09;4923493;28;97218;-51
2022/09/09 02:04:45;;;;;;;0.00;0.00;;;22.50;99.90;;;23.01;54.20;100448.94;4918086;28;98396;-47
2022/09/09 02:07:39;;;;;;;0.00;0.00;;;22.60;99.90;;;23.06;54.14;100452.03;4927542;28;97733;-49
2022/09/09 02:10:23;;;;;;;0.00;0.00;;;22.70;99.90;;;23.10;53.85;100458.84;4918326;28;99864;-48
2022/09/09 02:13:09;;;;;;;0.00;0.00;;;22.70;99.90;;;23.12;53.10;100451.47;4912240;28;99144;-51
2022/09/09 02:15:50;;;;;;;0.00;0.00;;;22.80;99.90;;;23.02;54.19;100448.78;4907321;28;97333;-48
2022/09/09 02:18:30;;;;;;;0.00;0.00;;;22.60;99.90;;;23.01;51.91;100448.94;4914390;28;98311;-45
2022/09/09 02:20:57;;;;;;;0.00;0.00;;;22.60;99.90;;;22.95;54.23;100452.16;4908336;28;97307;-49
2022/09/09 02:23:24;;;;;;;0.00;0.00;;;22.50;99.90;;;23.00;54.07;100453.47;4912878;28;97378;-48
2022/09/09 02:25:53;;;;;;;0.10;0.10;;;22.60;99.90;;;23.07;54.09;100451.03;4909934;28;110270;-52
2022/09/09 02:28:21;;;;;;;0.00;0.00;;;22.70;99.90;;;23.16;53.75;100447.53;4903461;28;107885;-48
2022/09/09 02:30:54;;;;;;;0.00;0.00;;;22.90;99.90;;;23.23;53.73;100445.13;4920630;28;97636;-45
2022/09/09 02:33:30;;;;;;;0.00;0.00;;;23.00;99.90;;;23.23;52.31;100451.34;4906713;28;97183;-50
2022/09/09 02:36:03;;;;;;;0.00;0.00;;;23.00;99.90;;;23.19;53.47;100452.63;4922055;28;97059;-51
2022/09/09 02:38:34;;;;;;;0.20;0.10;;;22.90;99.90;;;23.21;53.29;100444.41;4902837;28;97194;-51
2022/09/09 02:41:01;;;;;;;0.00;0.00;;;22.90;99.90;;;23.21;53.61;100450.63;4908699;28;97207;-52
2022/09/09 02:43:32;;;;;;;0.00;0.00;;;22.90;99.90;;;23.23;53.46;100454.03;4907376;28;97115;-48
2022/09/09 02:46:12;;;;;;;0.00;0.00;;;22.90;99.90;;;23.25;53.45;100449.34;4911885;28;97181;-50
2022/09/09 02:49:09;;;;;;;0.07;0.00;;;23.00;99.90;;;23.26;53.13;100448.38;4924222;28;97185;-49
2022/09/09 02:52:08;;;;;;;0.00;0.00;;;23.00;99.90;;;23.25;53.51;100440.44;4900691;28;99044;-52
2022/09/09 02:54:38;;;;;;;0.10;0.10;;;22.90;99.90;;;23.21;53.60;100445.25;4917703;28;97074;-49
2022/09/09 02:57:12;;;;;;;0.00;0.00;;;22.80;99.90;;;23.21;53.61;100442.56;4915390;28;96800;-47
2022/09/09 02:59:40;;;;;;;0.00;0.00;;;22.90;99.90;;;23.25;53.39;100445.81;4904246;28;96809;-48
2022/09/09 03:02:06;;;;;;;0.00;0.00;;;22.90;99.90;;;23.25;53.48;100451.19;4915011;28;97456;-53
2022/09/09 03:04:32;;;;;;;0.00;0.00;;;23.00;99.90;;;23.29;53.45;100448.09;4910185;28;97021;-52
2022/09/09 03:06:58;;;;;;;0.00;0.00;;;23.00;99.90;;;23.31;52.86;100451.50;4919745;28;101462;-52
2022/09/09 03:09:25;;;;;;;0.00;0.00;;;23.10;99.90;;;23.34;53.25;100445.81;4909400;28;102964;-49
2022/09/09 03:11:51;;;;;;;0.00;0.00;;;23.10;99.90;;;23.34;52.63;100440.44;4910900;28;97058;-50
2022/09/09 03:14:21;;;;;;;0.00;0.00;;;23.10;99.90;;;23.37;53.21;100434.78;4899104;28;97194;-49
2022/09/09 03:16:48;;;;;;;0.00;0.00;;;23.10;99.90;;;23.39;53.25;100430.09;4904694;28;97150;-52
2022/09/09 03:19:14;;;;;;;0.00;0.00;;;23.20;99.90;;;23.42;51.79;100432.50;4906051;28;97199;-52
2022/09/09 03:21:39;;;;;;;1.40;0.10;;;23.20;99.90;;;23.46;52.88;100430.38;4919168;28;113663;-51
2022/09/09 03:24:06;;;;;;;0.00;0.00;;;23.20;99.90;;;23.47;52.64;100433.94;4908675;28;97197;-47
2022/09/09 03:26:33;;;;;;;6.90;0.43;;;23.30;99.90;;;23.47;53.02;100428.53;4918453;28;97421;-50
2022/09/09 03:29:00;;;;;;;0.00;0.00;;;23.20;99.90;;;23.50;52.84;100433.63;4910143;28;98876;-45
2022/09/09 03:31:29;;;;;;;0.00;0.00;;;23.30;99.90;;;23.49;52.34;100426.56;4909822;28;99743;-47
2022/09/09 03:33:57;;;;;;;0.00;0.00;;;23.30;99.90;;;23.44;52.79;100427.84;4912824;28;97586;-52
2022/09/09 03:36:26;;;;;;;0.10;0.10;;;23.20;99.90;;;23.41;53.18;100430.78;4905227;28;97385;-52
2022/09/09 03:38:52;;;;;;;0.00;0.00;;;23.10;99.90;;;23.41;53.05;100433.50;4916971;28;97630;-54
2022/09/09 03:41:18;;;;;;;0.00;0.00;;;23.10;99.90;;;23.43;53.00;100434.22;4922119;28;97308;-52
2022/09/09 03:43:44;;;;;;;0.00;0.00;;;23.20;99.90;;;23.44;53.07;100440.44;4919397;28;96724;-55
2022/09/09 03:46:10;;;;;;;0.10;0.10;;;23.10;99.90;;;23.43;52.86;100428.84;4915558;28;97422;-46
2022/09/09 03:48:36;;;;;;;0.00;0.00;;;23.20;99.90;;;23.42;53.25;100437.03;4913896;28;97781;-54
2022/09/09 03:51:02;;;;;;;0.00;0.00;;;23.10;99.90;;;23.47;53.21;100433.94;4913494;28;97830;-49
2022/09/09 03:53:29;;;;;;;0.07;0.00;;;23.20;99.90;;;23.50;52.98;100436.31;4910019;28;97222;-53
2022/09/09 03:55:59;;;;;;;0.00;0.00;;;23.30;99.90;;;23.53;52.83;100439.56;4924361;28;103276;-56
2022/09/09 03:58:26;;;;;;;0.00;0.00;;;23.40;99.90;;;23.57;52.78;100429.38;4921637;28;97277;-52
2022/09/09 04:01:13;;;;;;;0.00;0.00;;;23.40;99.90;;;23.59;52.61;100435.50;4929292;28;97214;-50
2022/09/09 04:03:40;;;;;;;0.00;0.00;;;23.40;99.90;;;23.61;52.75;100444.28;4908378;28;97248;-52
2022/09/09 04:06:09;;;;;;;0.00;0.00;;;23.50;99.90;;;23.63;52.60;100439.59;4922358;28;97128;-51
2022/09/09 04:08:35;;;;;;;0.00;0.00;;;23.50;99.90;;;23.65;52.56;100437.63;4909227;28;98551;-48
2022/09/09 04:11:06;;;;;;;0.00;0.00;;;23.50;99.90;;;23.63;52.55;100434.22;4915943;28;98171;-51
2022/09/09 04:13:34;;;;;;;0.00;0.00;;;23.50;99.90;;;23.66;52.46;100439.31;4919092;28;97486;-51
2022/09/09 04:16:01;;;;;;;0.00;0.00;;;23.50;99.90;;;23.67;52.51;100441.00;4918467;28;97450;-49
2022/09/09 04:18:30;;;;;;;0.00;0.00;;;23.50;99.90;;;23.66;52.65;100432.09;4921874;28;99133;-46
2022/09/09 04:20:57;;;;;;;0.00;0.00;;;23.50;99.90;;;23.67;52.46;100435.63;4908003;28;97161;-53
2022/09/09 04:23:25;;;;;;;0.00;0.00;;;23.50;99.90;;;23.71;52.25;100437.03;4904126;28;96861;-48
2022/09/09 04:25:53;;;;;;;0.00;0.00;;;23.50;99.90;;;23.71;52.36;100431.66;4911380;28;97259;-50
2022/09/09 04:28:23;;;;;;;0.20;0.20;;;23.60;99.90;;;23.72;52.35;100425.25;4907083;28;105141;-50
2022/09/09 04:30:49;;;;;;;0.00;0.00;;;23.60;99.90;;;23.73;52.39;100427.84;4902160;28;97885;-47
2022/09/09 04:33:15;;;;;;;0.00;0.00;;;23.60;99.90;;;23.72;52.35;100422.56;4904068;28;100737;-51
2022/09/09 04:35:49;;;;;;;0.00;0.00;;;23.60;99.90;;;23.75;52.23;100425.00;4909107;28;97369;-51
2022/09/09 04:38:16;;;;;;;0.13;0.13;;;23.60;99.90;;;23.75;52.09;100433.06;4914960;28;97573;-51
2022/09/09 04:40:46;;;;;;;0.17;0.17;;;23.60;99.90;;;23.75;52.08;100435.78;4906375;28;97576;-49
2022/09/09 04:43:12;;;;;;;0.00;0.00;;;23.60;99.90;;;23.73;52.27;100440.44;4907973;28;96936;-47
2022/09/09 04:45:40;;;;;;;0.00;0.00;;;23.50;99.90;;;23.71;52.29;100442.41;4909093;28;97258;-52
2022/09/09 04:48:06;;;;;;;0.00;0.00;;;23.50;99.90;;;23.71;52.37;100442.41;4923190;28;97694;-52
2022/09/09 04:50:32;;;;;;;0.00;0.00;;;23.50;99.90;;;23.64;52.38;100442.16;4907925;28;97439;-48
2022/09/09 04:53:05;;;;;;;0.00;0.00;;;23.50;99.90;;;23.66;52.48;100444.69;4917165;28;97455;-48
2022/09/09 04:55:32;;;;;;;0.07;0.00;;;23.50;99.90;;;23.65;52.50;100443.84;4912104;28;96787;-47
2022/09/09 04:57:57;;;;;;;0.33;0.10;;;23.50;99.90;;;23.69;52.43;100444.41;4913643;28;97729;-47
2022/09/09 05:00:24;;;;;;;0.00;0.00;;;23.50;99.90;;;23.71;52.21;100448.66;4911570;28;97878;-49
2022/09/09 05:02:50;;;;;;;0.00;0.00;;;23.60;99.90;;;23.72;52.58;100438.72;4921502;28;97653;-48
2022/09/09 05:05:16;;;;;;;0.00;0.00;;;23.60;99.90;;;23.73;52.23;100448.53;4920916;28;97070;-52
2022/09/09 05:07:43;;;;;;;0.00;0.00;;;23.60;99.90;;;23.74;52.25;100439.47;4912919;28;98540;-48
2022/09/09 05:10:10;;;;;;;0.00;0.00;;;23.60;99.90;;;23.74;52.27;100442.16;4923375;28;97233;-54
2022/09/09 05:12:36;;;;;;;0.00;0.00;;;23.60;99.90;;;23.72;52.42;100433.34;4909527;28;96869;-48
2022/09/09 05:15:02;;;;;;;0.00;0.00;;;23.60;99.90;;;23.71;52.44;100442.41;4903668;28;97525;-49
2022/09/09 05:17:27;;;;;;;0.00;0.00;;;23.60;99.90;;;23.71;52.37;100445.09;4912432;28;97474;-48
2022/09/09 05:19:53;;;;;;;0.00;0.00;;;23.60;99.90;;;23.73;52.33;100451.22;4916053;28;97284;-54
2022/09/09 05:22:23;;;;;;;0.00;0.00;;;23.60;99.90;;;23.70;52.33;100440.72;4906557;28;98024;-53
2022/09/09 05:24:52;;;;;;;0.00;0.00;;;23.60;99.90;;;23.69;52.21;100439.88;4911510;28;97535;-47
2022/09/09 05:27:22;;;;;;;0.00;0.00;;;23.60;99.90;;;23.66;52.51;100439.31;4917306;28;97858;-51
2022/09/09 05:29:47;;;;;;;0.00;0.00;;;23.60;99.90;;;;;;4912488;28;97426;-55
2022/09/09 05:32:15;;;;;;;0.00;0.00;;;23.60;99.90;;;23.70;52.34;100435.34;4906755;28;96578;-52
2022/09/09 05:34:41;;;;;;;0.30;0.30;;;23.60;99.90;;;23.71;52.31;100437.03;4914744;28;97938;-52
2022/09/09 05:37:07;;;;;;;0.00;0.00;;;23.60;99.90;;;23.70;52.32;100438.03;4909192;28;97643;-51
2022/09/09 05:39:36;;;;;;;0.00;0.00;;;23.60;99.90;;;23.67;52.38;100441.00;4913835;28;98269;-50
2022/09/09 05:42:02;;;;;;;0.00;0.00;;;23.60;99.90;;;23.64;52.35;100435.91;4915394;28;97126;-52
2022/09/09 05:44:29;;;;;;;0.00;0.00;;;23.60;99.90;;;23.65;52.33;100438.47;4912355;28;97377;-53
2022/09/09 05:46:54;;;;;;;0.00;0.00;;;23.60;99.90;;;23.63;52.55;100440.47;4915832;28;97816;-55
2022/09/09 05:49:21;;;;;;;0.00;0.00;;;23.50;99.90;;;23.63;52.39;100439.59;4917442;28;97363;-56
2022/09/09 05:51:47;;;;;;;0.00;0.00;;;23.60;99.90;;;23.65;52.32;100443.00;4912942;28;97353;-49
2022/09/09 05:54:15;;;;;;;0.00;0.00;;;23.60;99.90;;;23.60;52.53;100445.28;4913537;28;97354;-50
2022/09/09 05:56:41;;;;;;;0.00;0.00;;;23.50;99.90;;;23.61;52.35;100457.75;4914350;28;102908;-56
2022/09/09 05:59:07;;;;;;;0.00;0.00;;;23.50;99.90;;;23.63;52.45;100445.00;4918751;28;100967;-49
2022/09/09 06:01:36;;;;;;;0.00;0.00;;;23.50;99.90;;;23.61;52.44;100446.97;4914393;28;100299;-53
2022/09/09 06:04:03;;;;;;;0.07;0.07;;;23.50;99.90;;;23.62;52.44;100444.16;4918153;28;98499;-54
2022/09/09 06:06:36;;;;;;;0.00;0.00;;;23.50;99.90;;;23.64;52.35;100446.69;4912473;28;98044;-47
2022/09/09 06:09:06;;;;;;;0.00;0.00;;;23.50;99.90;;;23.66;52.36;100445.56;4915470;28;97406;-53
2022/09/09 06:11:33;;;;;;;0.10;0.10;;;23.50;99.90;;;23.64;52.37;100446.69;4912955;28;98168;-49
2022/09/09 06:14:00;;;;;;;0.00;0.00;;;23.50;99.90;;;23.65;52.49;100443.00;4915998;28;97304;-49
2022/09/09 06:16:28;;;;;;;0.07;0.00;;;23.50;99.90;;;23.60;52.37;100439.91;4907229;28;98062;-49
2022/09/09 06:18:56;;;;;;;0.10;0.10;;;23.50;99.90;;;23.60;52.38;100445.28;4916609;28;97241;-49
2022/09/09 06:21:32;;;;;;;0.00;0.00;;;23.50;99.90;;;23.58;52.46;100452.63;4907073;28;97326;-54
2022/09/09 06:23:58;;;;;;;0.00;0.00;;;23.50;99.90;;;23.56;52.36;100443.81;4916635;28;97421;-50
2022/09/09 06:26:32;;;;;;;0.10;0.10;;;23.40;99.90;;;23.55;52.59;100447.50;4906021;28;99316;-50
2022/09/09 06:28:59;;;;;;;0.00;0.00;;;23.40;99.90;;;23.57;52.08;100453.59;4913601;28;97324;-47
2022/09/09 06:31:30;;;;;;;0.83;0.30;;;23.40;99.90;;;23.51;51.91;100456.88;4914116;28;101407;-47
2022/09/09 06:33:57;;;;;;;0.00;0.00;;;23.30;99.90;;;23.53;52.79;100454.88;4913555;28;97624;-49
2022/09/09 06:36:26;;;;;;;0.00;0.00;;;23.30;99.90;;;23.53;52.36;100453.03;4906278;28;98052;-50
2022/09/09 06:38:52;;;;;;;0.00;0.00;;;23.40;99.90;;;23.54;52.83;100451.19;4915373;28;96941;-50
2022/09/09 06:41:21;;;;;;;0.00;0.00;;;23.40;99.90;;;23.54;52.71;100452.03;4913676;28;96983;-51
2022/09/09 06:43:47;;;;;;;0.00;0.00;;;23.40;99.90;;;23.55;52.74;100458.28;4913399;28;97120;-51
2022/09/09 06:46:27;;;;;;;0.07;0.07;;;23.40;99.90;;;23.53;52.78;100452.19;4916087;28;100754;-46
2022/09/09 06:48:58;;;;;;;0.00;0.00;;;23.30;99.90;;;23.50;52.98;100455.16;4915805;28;101148;-48
2022/09/09 06:51:30;;;;;;;0.00;0.00;;;23.30;99.90;;;23.49;52.25;100450.78;4911168;28;97303;-51
2022/09/09 06:53:59;;;;;;;0.00;0.00;;;23.30;99.90;;;23.48;52.43;100452.63;4912229;28;97647;-49
2022/09/09 06:56:34;;;;;;;0.00;0.00;;;23.20;99.90;;;23.44;52.97;100449.38;4903074;28;97176;-54
2022/09/09 06:59:04;;;;;;;0.00;0.00;;;23.20;99.90;;;23.45;52.89;100451.06;4925914;28;97535;-49
2022/09/09 07:01:33;;;;;;;0.53;0.20;;;23.20;99.90;;;23.43;53.06;100450.38;4909784;28;97002;-44
2022/09/09 07:04:00;;;;;;;0.00;0.00;;;23.20;99.90;;;23.43;53.06;100444.09;4914175;28;96996;-51
2022/09/09 07:06:30;;;;;;;0.10;0.00;;;23.20;99.90;;;23.43;53.01;100450.38;4920983;28;97108;-48
2022/09/09 07:08:59;;;;;;;0.00;0.00;;;23.20;99.90;;;23.41;53.21;100446.94;4905826;28;99328;-46
2022/09/09 07:11:30;;;;;;;0.00;0.00;;;23.20;99.90;;;23.44;52.77;100445.84;4910845;28;103421;-51
2022/09/09 07:13:58;;;;;;;0.00;0.00;;;23.20;99.90;;;23.45;52.87;100442.16;4914148;28;97940;-49
2022/09/09 07:16:25;;;;;;;0.00;0.00;;;23.30;99.90;;;23.31;52.65;100446.13;4908191;28;97804;-50
2022/09/09 07:18:52;;;;;;;0.20;0.20;;;23.10;99.90;;;23.31;53.12;100448.81;4924280;28;98283;-48
2022/09/09 07:21:20;;;;;;;0.00;0.00;;;23.00;99.90;;;23.20;51.04;100448.94;4915078;28;97543;-46
2022/09/09 07:23:46;;;;;;;0.43;0.20;;;22.90;99.90;;;23.04;50.94;100449.50;4917602;28;97207;-49
2022/09/09 07:26:19;;;;;;;0.00;0.00;;;22.70;99.90;;;23.05;53.72;100451.19;4914487;28;97526;-45
2022/09/09 07:28:46;;;;;;;0.00;0.00;;;22.60;99.90;;;22.96;52.45;100457.41;4913406;28;102513;-46
2022/09/09 07:31:27;;;;;;;0.00;0.00;;;22.60;99.90;;;22.97;53.97;100452.88;4918711;28;97694;-49
2022/09/09 07:33:53;;;;;;;0.00;0.00;;;22.60;99.90;;;23.03;53.96;100463.09;4908161;28;97166;-50
2022/09/09 07:36:29;;;;;;;0.00;0.00;;;22.70;99.90;;;23.02;54.04;100469.47;4912823;28;102644;-49
2022/09/09 07:39:02;;;;;;;0.00;0.00;;;22.70;99.90;;;22.97;51.21;100469.84;4928922;28;99086;-48
2022/09/09 07:41:33;;;;;;;0.00;0.00;;;22.60;99.90;;;22.88;53.61;100475.22;4908463;28;97534;-48
2022/09/09 07:44:04;;;;;;;0.10;0.00;;;22.50;99.90;;;22.83;50.10;100468.41;4925081;28;99786;-49
2022/09/09 07:46:30;;;;;;;0.00;0.00;;;22.50;99.90;;;22.87;53.67;100469.00;4915978;28;97659;-47
2022/09/09 07:48:57;;;;;;;0.00;0.00;;;22.50;99.90;;;22.75;49.47;100470.91;4921479;28;108257;-54
2022/09/09 07:51:30;;;;;;;0.00;0.00;;;22.40;99.90;;;22.78;51.98;100470.63;4904085;28;96823;-53
2022/09/09 07:53:59;;;;;;;0.00;0.00;;;22.40;99.90;;;22.82;49.73;100477.47;4918413;28;97416;-51
2022/09/09 07:56:26;;;;;;;0.00;0.00;;;22.50;99.90;;;22.80;50.06;100483.94;4915376;28;99553;-54
2022/09/09 07:58:54;;;;;;;0.00;0.00;;;22.40;99.90;;;22.76;50.07;100478.00;4916563;28;97027;-49
2022/09/09 08:01:30;;;;;;;0.10;0.10;;;22.40;99.90;;;22.80;53.64;100484.78;4913177;28;97437;-46
2022/09/09 08:04:06;;;;;;;0.00;0.00;;;22.40;99.90;;;22.82;54.13;100482.84;4909274;28;96915;-44
2022/09/09 08:06:37;;;;;;;0.00;0.00;;;22.50;99.90;;;22.90;52.43;100481.31;4908687;28;97351;-53
2022/09/09 08:09:04;;;;;;;0.00;0.00;;;22.60;99.90;;;22.91;53.27;100475.78;4910942;28;97127;-52
2022/09/09 08:11:31;;;;;;;0.00;0.00;;;22.60;99.90;;;22.81;48.15;100481.09;4912210;28;100895;-49
2022/09/09 08:13:57;;;;;;;0.00;0.00;;;22.50;99.90;;;22.71;51.47;100480.25;4913179;28;96968;-48
2022/09/09 08:16:36;;;;;;;0.00;0.00;;;22.40;99.90;;;22.76;50.87;100483.38;4912236;28;97172;-51
2022/09/09 08:19:03;;;;;;;0.00;0.00;;;22.40;99.90;;;22.72;49.11;100479.25;4921228;28;97250;-47
2022/09/09 08:21:31;;;;;;;1.30;0.10;;;22.30;99.90;;;22.78;52.35;100480.53;4914736;28;98050;-49
2022/09/09 08:24:00;;;;;;;0.00;0.00;;;22.40;99.90;;;22.73;48.11;100480.97;4923204;28;97130;-48
2022/09/09 08:26:32;;;;;;;0.00;0.00;;;22.40;99.90;;;22.71;51.26;100474.88;4906918;28;98223;-54
2022/09/09 08:29:00;;;;;;;0.00;0.00;;;22.40;99.90;;;22.69;47.82;100474.13;4904887;28;97291;-53
2022/09/09 08:31:34;;;;;;;0.00;0.00;;;22.40;99.90;;;22.60;51.21;100471.44;4911573;28;97147;-46
2022/09/09 08:34:04;;;;;;;0.00;0.00;;;22.30;99.40;;;22.69;51.79;100474.13;4912277;28;97405;-52
2022/09/09 08:36:34;;;;;;;0.00;0.00;;;22.40;99.90;;;22.69;53.11;100479.50;4922049;28;97598;-53
2022/09/09 08:39:01;;;;;;;0.00;0.00;;;22.40;99.90;;;22.74;49.40;100479.13;4919816;28;101498;-49
2022/09/09 08:41:39;;;;;;;0.00;0.00;;;22.50;99.90;;;22.79;51.49;100479.56;4913712;28;97506;-55
2022/09/09 08:44:57;;;;;;;0.00;0.00;;;22.40;99.90;;;22.82;52.12;100480.16;4907317;28;97104;-51
2022/09/09 08:47:58;;;;;;;0.00;0.00;;;22.50;99.90;;;22.88;53.46;100475.22;4908031;28;102326;-49
2022/09/09 08:50:31;;;;;;;0.00;0.00;;;22.50;99.90;;;22.89;50.88;100487.69;4914671;28;97344;-49
2022/09/09 08:53:07;;;;;;;0.00;0.00;;;22.60;99.90;;;22.92;49.12;100487.41;4909049;28;97408;-54
2022/09/09 08:55:41;;;;;;;0.00;0.00;;;22.60;99.90;;;22.87;52.75;100489.66;4909115;28;97382;-50
2022/09/09 08:58:19;;;;;;;0.20;0.10;;;22.60;99.90;;;22.76;49.27;100487.91;4909748;28;99744;-46
2022/09/09 09:01:26;;;;;;;0.00;0.00;;;22.50;99.80;;;22.68;45.14;100493.09;4913972;28;101383;-52
2022/09/09 09:04:46;;;;;;;0.00;0.00;;;22.40;98.30;;;22.58;44.66;100494.91;4908865;28;97319;-49
2022/09/09 09:07:41;;;;;;;0.00;0.00;;;22.30;97.80;;;22.58;46.26;100497.59;4905994;28;97459;-52
2022/09/09 09:10:35;;;;;;;0.20;0.20;;;22.30;97.90;;;22.52;50.10;100507.03;4906719;28;102528;-51
2022/09/09 09:13:02;;;;;;;0.10;0.10;;;22.10;99.90;;;22.48;46.25;100506.47;4917990;28;100562;-50
2022/09/09 09:15:37;;;;;;;0.00;0.00;;;22.20;97.60;;;22.52;50.49;100507.03;4917741;28;97053;-51
2022/09/09 09:18:04;;;;;;;0.00;0.00;;;22.20;99.20;;;22.55;47.32;100496.00;4925635;28;97256;-47
2022/09/09 09:20:51;;;;;;;0.00;0.00;;;22.30;99.20;;;22.61;44.75;100495.47;4909873;28;97191;-50
2022/09/09 09:23:27;;;;;;;1.60;0.20;;;22.30;98.50;;;22.65;44.55;100490.69;4910273;28;100371;-50
2022/09/09 09:25:59;;;;;;;0.00;0.00;;;22.30;97.50;;;22.70;46.10;100494.66;4913832;28;97241;-49
2022/09/09 09:28:30;;;;;;;0.00;0.00;;;22.40;99.00;;;22.71;46.11;100491.00;4902248;28;96715;-50
2022/09/09 09:31:07;;;;;;;0.00;0.00;;;22.40;99.20;;;22.76;52.05;100494.13;4913758;28;98157;-47
2022/09/09 09:33:50;;;;;;;0.00;0.00;;;22.40;99.90;;;22.80;49.28;100494.69;4910886;28;99334;-51
2022/09/09 09:36:16;;;;;;;0.00;0.00;;;22.50;99.90;;;22.74;44.45;100496.09;4912245;28;97362;-53
2022/09/09 09:39:00;;;;;;;0.00;0.00;;;22.50;97.50;;;22.82;48.63;100498.97;4926414;28;96968;-47
2022/09/09 09:41:45;;;;;;;0.00;0.00;;;22.50;99.90;;;22.85;48.49;100496.00;4912607;28;97522;-49
2022/09/09 09:44:27;;;;;;;0.00;0.00;;;22.60;99.90;;;22.91;48.47;100496.47;4909236;28;97405;-49
2022/09/09 09:47:06;;;;;;;0.00;0.00;;;22.60;99.70;;;22.85;50.70;100498.69;4912417;28;97460;-50
2022/09/09 09:49:32;;;;;;;0.00;0.00;;;22.50;97.50;;;22.90;51.22;100505.53;4904002;28;97222;-49
2022/09/09 09:52:04;;;;;;;0.00;0.00;;;22.60;99.90;;;23.00;52.04;100506.38;4911524;28;97438;-52
2022/09/09 09:54:35;;;;;;;0.00;0.00;;;22.70;99.90;;;23.01;51.03;100508.09;4925249;28;97125;-51
2022/09/09 09:57:13;;;;;;;0.00;0.00;;;22.70;99.90;;;23.00;46.11;100517.13;4920166;28;97140;-46
2022/09/09 09:59:39;;;;;;;0.00;0.00;;;22.70;99.00;;;23.04;49.92;100502.44;4917023;28;96995;-51
2022/09/09 10:02:20;;;;;;;0.00;0.00;;;22.80;99.90;;;22.97;48.86;100498.59;4912820;28;98687;-49
2022/09/09 10:04:47;;;;;;;0.07;0.07;;;22.70;98.10;;;23.01;47.28;100508.94;4914491;28;102233;-49
2022/09/09 10:07:22;;;;;;;0.00;0.00;;;22.70;99.30;;;22.98;51.35;100502.97;4912514;28;97273;-48
2022/09/09 10:09:57;;;;;;;0.00;0.00;;;22.70;99.90;;;23.01;45.99;100502.72;4919239;28;97647;-50
2022/09/09 10:12:31;;;;;;;0.00;0.00;;;22.70;98.50;;;23.02;49.68;100497.19;4914391;28;97660;-50
2022/09/09 10:15:38;;;;;;;0.00;0.00;;;22.80;99.10;;;23.05;47.72;100504.13;4915513;28;97148;-48
2022/09/09 10:18:40;;;;;;;0.00;0.00;;;22.70;98.60;;;23.12;50.18;100494.50;4909171;28;98199;-47
2022/09/09 10:21:48;;;;;;;0.00;0.00;;;22.90;99.90;;;23.18;50.07;100493.97;4918446;28;97463;-49
2022/09/09 10:25:07;;;;;;;0.00;0.00;;;22.90;99.00;;;23.18;50.07;100493.13;4917783;28;101798;-54
2022/09/09 10:27:39;;;;;;;0.00;0.00;;;23.00;98.60;;;23.23;49.98;100486.31;4905898;28;101873;-54
2022/09/09 10:30:11;;;;;;;0.63;0.30;;;23.00;99.90;;;23.27;48.65;100493.13;4920311;28;98209;-53
2022/09/09 10:32:56;;;;;;;0.00;0.00;;;23.10;99.10;;;23.29;47.76;100485.78;4916427;28;97286;-53
2022/09/09 10:35:40;;;;;;;0.10;0.10;;;23.10;99.90;;;23.32;50.93;100487.34;4913332;28;97487;-53
2022/09/09 10:38:13;;;;;;;0.00;0.00;;;23.10;99.90;;;23.29;44.87;100485.78;4911376;28;99502;-52
2022/09/09 10:40:51;;;;;;;0.10;0.10;;;23.20;97.60;;;23.32;45.95;100490.03;4908662;28;97201;-49
2022/09/09 10:43:29;;;;;;;0.00;0.00;;;23.20;98.50;;;23.31;44.95;100483.78;4915627;28;97136;-48